メインページ
METAR-TAF:

METAR-TAF

空港 :

ベオグラード・ニコラ・テスラ空港

ベオグラード, セルビア

緯度: 44-49N, 経度: 020-17E, 海抜: 96m

現時点の気象観測

当レポートは40分前の06:00(UTC)に作成
西の風 4kt
気温 4°C
湿度 75%
気圧 1018 hPa
視程: 7000m

METAR: LYBE 040600Z 28004KT 7000 NSC 04/M00 Q1018 NOSIG

時間: 08:40 (06:40 UTC)

予報

当レポートは1時間40分前の05:00(UTC)に作成
予報は04日の 06時(UTC)から 05日の 06時(UTC)まで有効
西の風 6kt
視程10km以上
1,500メートル以下は雲なし、積乱雲なし
04日の 09時(UTC)から 04日の 11時(UTC)まで徐々に
北東の風 12kt

TAF: LYBE 040500Z 0406/0506 28006KT CAVOK TX15/0413Z TN02/0505Z BECMG 0409/0411 04012KT

4,000以上の空港の気象観測と天気予報(METAR報とTAF報)

利用可能な観測所は地図上に黄色い丸と赤い丸で示す。

丸の上にカーソルを重ねると観測所名を参照できる。

次にクリックすると気象観測と天気予報を参照できる。

マップの切り替え:黒色「×」印の緑ボタンをクリックして拡大、「-」印の緑ボタンをクリックして縮小、緑色の三角印をクリックして隣りの地図に切り替え


METAR-TAF: